createdAt,value
2024-05-09T00:00:35.786Z,12.83
2024-05-09T00:03:10.502Z,12.97
2024-05-09T00:05:40.438Z,12.84
2024-05-09T00:08:08.213Z,13.03
2024-05-09T00:10:37.692Z,13.03
2024-05-09T00:13:06.784Z,13.04
2024-05-09T00:15:34.158Z,13.11
2024-05-09T00:18:01.922Z,12.84
2024-05-09T00:20:36.833Z,12.83
2024-05-09T00:23:10.545Z,12.90
2024-05-09T00:25:37.978Z,12.79
2024-05-09T00:28:05.328Z,12.77
2024-05-09T00:30:35.363Z,12.75
2024-05-09T00:33:08.166Z,12.81
2024-05-09T00:35:36.340Z,12.80
2024-05-09T00:38:03.572Z,12.80
2024-05-09T00:40:40.390Z,12.67
2024-05-09T00:43:10.101Z,12.61
2024-05-09T00:45:37.197Z,12.39
2024-05-09T00:48:07.472Z,12.50
2024-05-09T00:50:37.991Z,12.52
2024-05-09T00:53:09.955Z,12.54
2024-05-09T00:55:37.750Z,12.55
2024-05-09T00:58:05.984Z,12.61
2024-05-09T01:00:38.903Z,12.69
2024-05-09T01:03:08.805Z,12.78
2024-05-09T01:05:39.186Z,12.82
2024-05-09T01:08:06.852Z,12.91
2024-05-09T01:10:35.266Z,12.95
2024-05-09T01:13:07.112Z,12.76
2024-05-09T01:15:34.400Z,12.93
2024-05-09T01:18:11.058Z,12.84
2024-05-09T01:20:42.379Z,12.76
2024-05-09T01:23:13.979Z,12.71
2024-05-09T01:25:42.179Z,12.68
2024-05-09T01:28:08.701Z,12.64
2024-05-09T01:30:37.368Z,12.50
2024-05-09T01:33:07.288Z,12.46
2024-05-09T01:35:35.680Z,12.36
2024-05-09T01:38:02.515Z,12.23
2024-05-09T01:40:36.819Z,12.00
2024-05-09T01:43:06.433Z,12.18
2024-05-09T01:45:33.120Z,11.97
2024-05-09T01:47:59.950Z,12.08
2024-05-09T01:50:37.395Z,12.03
2024-05-09T01:53:08.102Z,11.93
2024-05-09T01:55:34.782Z,11.82
2024-05-09T01:58:01.368Z,11.76
2024-05-09T02:00:37.882Z,11.71
2024-05-09T02:03:15.582Z,11.71
2024-05-09T02:05:48.265Z,11.78
2024-05-09T02:08:19.888Z,11.64
2024-05-09T02:10:47.982Z,11.60
2024-05-09T02:13:15.540Z,11.54
2024-05-09T02:15:42.289Z,11.51
2024-05-09T02:18:10.260Z,11.68
2024-05-09T02:20:44.141Z,11.66
2024-05-09T02:23:11.046Z,11.72
2024-05-09T02:25:37.862Z,11.68
2024-05-09T02:28:04.621Z,11.71
2024-05-09T02:30:39.271Z,11.56
2024-05-09T02:33:09.953Z,11.69
2024-05-09T02:35:38.299Z,11.69
2024-05-09T02:38:04.992Z,11.54
2024-05-09T02:40:36.965Z,11.61
2024-05-09T02:43:06.810Z,11.54
2024-05-09T02:45:33.574Z,11.47
2024-05-09T02:48:00.776Z,11.73
2024-05-09T02:50:34.516Z,11.89
2024-05-09T02:53:06.340Z,11.80
2024-05-09T02:55:33.232Z,11.87
2024-05-09T02:58:00.113Z,11.74
2024-05-09T03:00:35.070Z,11.87
2024-05-09T03:03:08.305Z,11.72
2024-05-09T03:05:35.902Z,11.67
2024-05-09T03:08:02.655Z,11.55
2024-05-09T03:10:35.319Z,11.54
2024-05-09T03:13:14.726Z,11.49
2024-05-09T03:15:42.945Z,11.48
2024-05-09T03:18:09.887Z,11.40
2024-05-09T03:20:37.830Z,11.44
2024-05-09T03:23:06.320Z,11.43
2024-05-09T03:25:33.471Z,11.41
2024-05-09T03:28:00.134Z,11.39
2024-05-09T03:30:38.428Z,11.32
2024-05-09T03:33:16.784Z,11.21
2024-05-09T03:35:44.225Z,11.25
2024-05-09T03:38:11.129Z,11.11
2024-05-09T03:40:47.176Z,11.01
2024-05-09T03:43:14.390Z,11.21
2024-05-09T03:45:42.924Z,11.24
2024-05-09T03:48:09.763Z,11.11
2024-05-09T03:50:37.321Z,10.87
2024-05-09T03:53:04.674Z,10.84
2024-05-09T03:55:31.765Z,11.14
2024-05-09T03:57:58.426Z,11.08
2024-05-09T04:00:31.665Z,11.27
2024-05-09T04:03:06.282Z,10.92
2024-05-09T04:05:34.977Z,11.22
2024-05-09T04:08:01.817Z,11.23
2024-05-09T04:10:33.441Z,11.03
2024-05-09T04:13:01.646Z,11.02
2024-05-09T04:15:28.331Z,11.16
2024-05-09T04:17:55.532Z,11.17
2024-05-09T04:20:33.055Z,10.97
2024-05-09T04:23:06.198Z,11.18
2024-05-09T04:25:33.067Z,11.25
2024-05-09T04:27:59.600Z,11.26
2024-05-09T04:30:34.891Z,11.33
2024-05-09T04:33:06.348Z,11.34
2024-05-09T04:35:33.825Z,11.43
2024-05-09T04:38:00.589Z,11.35
2024-05-09T04:40:33.175Z,11.68
2024-05-09T04:43:03.614Z,11.75
2024-05-09T04:45:30.354Z,11.69
2024-05-09T04:47:57.055Z,11.84
2024-05-09T04:50:32.745Z,11.97
2024-05-09T04:53:03.662Z,11.87
2024-05-09T04:55:30.463Z,12.08
2024-05-09T04:57:57.039Z,12.09
2024-05-09T05:00:32.381Z,12.12
2024-05-09T05:03:08.260Z,12.17
2024-05-09T05:05:42.874Z,12.19
2024-05-09T05:08:17.953Z,12.28
2024-05-09T05:10:46.597Z,12.20
2024-05-09T05:13:20.159Z,12.39
2024-05-09T05:15:55.584Z,12.26
2024-05-09T05:18:23.155Z,12.47
2024-05-09T05:20:50.227Z,12.54
2024-05-09T05:23:20.115Z,12.67
2024-05-09T05:25:48.658Z,12.78
2024-05-09T05:28:16.230Z,12.79
2024-05-09T05:30:42.831Z,12.85
2024-05-09T05:33:14.703Z,12.73
2024-05-09T05:35:42.484Z,12.79
2024-05-09T05:38:10.103Z,12.78
2024-05-09T05:40:38.572Z,12.84
2024-05-09T05:43:10.584Z,13.08
2024-05-09T05:45:37.896Z,13.09
2024-05-09T05:48:06.363Z,12.89
2024-05-09T05:50:36.705Z,13.04
2024-05-09T05:53:07.374Z,13.11
2024-05-09T05:55:34.888Z,13.17
2024-05-09T05:58:02.097Z,13.24
2024-05-09T06:00:35.019Z,13.31
2024-05-09T06:03:05.427Z,13.18
2024-05-09T06:05:32.474Z,13.38
2024-05-09T06:07:59.480Z,13.31
2024-05-09T06:10:30.604Z,13.50
2024-05-09T06:13:04.964Z,13.53
2024-05-09T06:15:31.507Z,13.57
2024-05-09T06:17:58.335Z,13.47
2024-05-09T06:20:34.549Z,13.62
2024-05-09T06:23:04.192Z,13.75
2024-05-09T06:25:30.916Z,13.64
2024-05-09T06:27:57.414Z,13.70
2024-05-09T06:30:30.556Z,13.90
2024-05-09T06:33:05.341Z,13.94
2024-05-09T06:35:32.899Z,14.00
2024-05-09T06:37:59.579Z,14.04
2024-05-09T06:40:34.456Z,14.11
2024-05-09T06:43:04.824Z,13.94
2024-05-09T06:45:31.382Z,14.16
2024-05-09T06:47:58.147Z,14.16
2024-05-09T06:50:28.313Z,14.25
2024-05-09T06:52:58.313Z,14.36
2024-05-09T06:55:24.908Z,14.38
2024-05-09T06:57:51.416Z,14.41
2024-05-09T07:00:26.845Z,14.36
2024-05-09T07:02:59.055Z,14.45
2024-05-09T07:05:26.835Z,14.64
2024-05-09T07:07:53.580Z,14.74
2024-05-09T07:10:28.469Z,14.85
2024-05-09T07:12:59.381Z,14.87
2024-05-09T07:15:25.929Z,14.94
2024-05-09T07:17:52.773Z,15.14
2024-05-09T07:20:27.619Z,15.24
2024-05-09T07:23:00.684Z,15.33
2024-05-09T07:25:27.253Z,15.41
2024-05-09T07:27:53.757Z,15.46
2024-05-09T07:30:27.628Z,15.57
2024-05-09T07:32:59.924Z,15.54
2024-05-09T07:35:26.860Z,15.80
2024-05-09T07:37:53.602Z,15.88
2024-05-09T07:42:49.664Z,16.07
2024-05-09T07:45:39.090Z,16.20
2024-05-09T07:52:23.102Z,16.63
2024-05-09T07:53:39.168Z,16.76
2024-05-09T07:56:09.956Z,16.93
2024-05-09T07:58:37.402Z,16.89
2024-05-09T08:01:04.276Z,17.17
2024-05-09T08:03:33.981Z,17.42
2024-05-09T08:06:01.244Z,17.64
2024-05-09T08:08:27.801Z,17.96
2024-05-09T08:10:54.452Z,18.19
2024-05-09T08:13:21.161Z,18.35
2024-05-09T08:15:48.608Z,18.75
2024-05-09T08:18:15.355Z,19.01
2024-05-09T08:20:42.086Z,19.35
2024-05-09T08:23:08.602Z,19.53
2024-05-09T08:25:36.374Z,19.76
2024-05-09T08:28:04.673Z,20.05
2024-05-09T08:30:36.720Z,20.38
2024-05-09T08:33:06.277Z,20.43
2024-05-09T08:35:33.636Z,20.69
2024-05-09T08:38:02.312Z,20.88
2024-05-09T08:40:34.444Z,20.95
2024-05-09T08:43:10.450Z,21.10
2024-05-09T08:45:42.589Z,21.07
2024-05-09T08:48:12.357Z,21.31
2024-05-09T08:50:40.742Z,21.42
2024-05-09T08:53:08.067Z,21.60
2024-05-09T08:55:37.380Z,21.72
2024-05-09T08:58:07.513Z,21.74
2024-05-09T09:00:37.302Z,21.88
2024-05-09T09:03:07.112Z,21.97
2024-05-09T09:05:38.520Z,21.93
2024-05-09T09:08:09.023Z,21.90
2024-05-09T09:10:38.078Z,21.96
2024-05-09T09:13:07.214Z,21.97
2024-05-09T09:15:33.928Z,22.08
2024-05-09T09:18:01.254Z,22.34
2024-05-09T09:20:35.778Z,22.39
2024-05-09T09:23:04.696Z,22.52
2024-05-09T09:25:32.114Z,22.63
2024-05-09T09:27:59.151Z,22.75
2024-05-09T09:30:36.260Z,22.77
2024-05-09T09:33:06.377Z,22.87
2024-05-09T09:35:34.182Z,23.10
2024-05-09T09:38:05.812Z,23.18
2024-05-09T09:40:37.337Z,23.44
2024-05-09T09:43:14.421Z,23.46
2024-05-09T09:45:43.229Z,23.58
2024-05-09T09:48:11.982Z,23.50
2024-05-09T09:50:40.014Z,23.65
2024-05-09T09:53:07.939Z,23.68
2024-05-09T09:55:35.575Z,23.65
2024-05-09T09:58:04.016Z,23.76
2024-05-09T10:00:33.334Z,23.50
2024-05-09T10:03:01.339Z,23.42
2024-05-09T10:05:28.849Z,23.63
2024-05-09T10:07:57.397Z,23.71
2024-05-09T10:10:31.885Z,23.65
2024-05-09T10:13:03.944Z,23.78
2024-05-09T10:15:42.761Z,23.53
2024-05-09T10:18:09.480Z,23.65
2024-05-09T10:20:49.266Z,23.78
2024-05-09T10:23:25.863Z,23.64
2024-05-09T10:26:10.311Z,23.76
2024-05-09T10:28:42.601Z,23.96
2024-05-09T10:31:11.420Z,24.22
2024-05-09T10:33:52.485Z,24.30
2024-05-09T10:36:20.738Z,24.70
2024-05-09T10:38:48.962Z,24.76
2024-05-09T10:41:19.077Z,24.99
2024-05-09T10:43:46.370Z,24.70
2024-05-09T10:46:14.667Z,24.67
2024-05-09T10:48:43.337Z,24.63
2024-05-09T10:51:10.628Z,24.84
2024-05-09T10:53:45.240Z,24.71
2024-05-09T10:56:14.229Z,24.71
2024-05-09T10:58:40.949Z,24.69
2024-05-09T11:01:09.054Z,24.82
2024-05-09T11:03:36.660Z,24.63
2024-05-09T11:06:03.743Z,25.08
2024-05-09T11:08:32.424Z,25.27
2024-05-09T11:10:59.853Z,25.36
2024-05-09T11:13:27.900Z,25.24
2024-05-09T11:15:54.767Z,25.49
2024-05-09T11:18:25.455Z,25.48
2024-05-09T11:20:54.047Z,25.73
2024-05-09T11:23:22.472Z,25.74
2024-05-09T11:25:50.065Z,25.98
2024-05-09T11:28:21.037Z,25.78
2024-05-09T11:30:48.797Z,26.10
2024-05-09T11:33:17.410Z,25.99
2024-05-09T11:35:45.624Z,25.98
2024-05-09T11:38:12.731Z,26.45
2024-05-09T11:40:39.543Z,26.61
2024-05-09T11:43:06.459Z,26.47
2024-05-09T11:45:33.099Z,26.56
2024-05-09T11:47:59.906Z,26.85
2024-05-09T11:50:32.733Z,26.87
2024-05-09T11:53:02.150Z,26.94
2024-05-09T11:55:28.991Z,26.85
2024-05-09T11:57:55.804Z,27.09
2024-05-09T12:00:29.711Z,27.64
2024-05-09T12:03:04.981Z,27.99
2024-05-09T12:05:32.291Z,28.38
2024-05-09T12:07:59.039Z,28.21
2024-05-09T12:10:32.717Z,28.20
2024-05-09T12:13:02.101Z,27.93
2024-05-09T12:15:29.149Z,27.64
2024-05-09T12:17:58.357Z,27.90
2024-05-09T12:20:35.156Z,28.12
2024-05-09T12:23:05.158Z,28.47
2024-05-09T12:25:31.696Z,28.79
2024-05-09T12:27:58.389Z,29.04
2024-05-09T12:30:33.156Z,28.60
2024-05-09T12:33:04.915Z,28.59
2024-05-09T12:35:31.719Z,28.39
2024-05-09T12:37:58.466Z,27.92
2024-05-09T12:40:34.269Z,27.52
2024-05-09T12:43:04.604Z,27.50
2024-05-09T12:45:31.609Z,27.08
2024-05-09T12:47:58.485Z,27.03
2024-05-09T12:50:31.732Z,26.88
2024-05-09T12:53:00.455Z,26.68
2024-05-09T12:55:28.133Z,26.41
2024-05-09T12:57:55.047Z,26.33
2024-05-09T13:00:28.156Z,26.02
2024-05-09T13:03:00.348Z,25.48
2024-05-09T13:05:27.369Z,25.47
2024-05-09T13:07:54.100Z,25.27
2024-05-09T13:10:29.022Z,25.53
2024-05-09T13:12:59.312Z,25.89
2024-05-09T13:15:26.045Z,26.30
2024-05-09T13:17:52.827Z,26.55
2024-05-09T13:20:28.877Z,26.71
2024-05-09T13:23:01.644Z,26.76
2024-05-09T13:25:28.251Z,26.74
2024-05-09T13:27:55.085Z,26.46
2024-05-09T13:30:29.336Z,26.04
2024-05-09T13:33:04.836Z,25.44
2024-05-09T13:35:32.174Z,25.45
2024-05-09T13:37:58.858Z,25.36
2024-05-09T13:40:32.340Z,25.17
2024-05-09T13:43:01.978Z,24.95
2024-05-09T13:45:28.787Z,24.78
2024-05-09T13:47:55.636Z,24.52
2024-05-09T13:50:31.025Z,24.71
2024-05-09T13:53:01.885Z,24.71
2024-05-09T13:55:28.599Z,24.72
2024-05-09T13:57:55.414Z,24.71
2024-05-09T14:00:37.630Z,24.42
2024-05-09T14:03:09.298Z,24.16
2024-05-09T14:05:36.201Z,24.46
2024-05-09T14:08:03.146Z,24.53
2024-05-09T14:10:31.854Z,24.52
2024-05-09T14:12:59.701Z,24.56
2024-05-09T14:15:26.475Z,24.35
2024-05-09T14:17:53.496Z,24.28
2024-05-09T14:20:29.926Z,24.31
2024-05-09T14:22:58.933Z,24.29
2024-05-09T14:25:28.212Z,24.10
2024-05-09T14:27:54.925Z,24.19
2024-05-09T14:30:30.469Z,24.05
2024-05-09T14:33:03.198Z,24.13
2024-05-09T14:35:29.945Z,24.05
2024-05-09T14:37:56.864Z,23.83
2024-05-09T14:40:36.628Z,23.41
2024-05-09T14:43:08.382Z,23.34
2024-05-09T14:45:35.433Z,23.40
2024-05-09T14:48:02.803Z,23.12
2024-05-09T14:50:35.836Z,22.62
2024-05-09T14:53:06.832Z,22.48
2024-05-09T14:55:36.713Z,22.52
2024-05-09T14:58:06.383Z,22.48
2024-05-09T15:00:36.334Z,22.52
2024-05-09T15:03:05.164Z,22.20
2024-05-09T15:05:32.012Z,22.57
2024-05-09T15:07:58.853Z,22.36
2024-05-09T15:10:33.806Z,22.21
2024-05-09T15:13:02.839Z,22.22
2024-05-09T15:15:29.769Z,22.31
2024-05-09T15:17:56.724Z,22.22
2024-05-09T15:20:30.755Z,22.05
2024-05-09T15:23:01.932Z,21.88
2024-05-09T15:25:28.655Z,21.87
2024-05-09T15:27:55.528Z,21.68
2024-05-09T15:30:30.037Z,21.60
2024-05-09T15:32:59.145Z,21.57
2024-05-09T15:35:25.705Z,21.62
2024-05-09T15:37:52.271Z,21.17
2024-05-09T15:40:26.614Z,21.05
2024-05-09T15:43:02.504Z,21.13
2024-05-09T15:45:29.526Z,21.06
2024-05-09T15:47:57.140Z,21.01
2024-05-09T15:50:35.165Z,21.12
2024-05-09T15:53:05.786Z,21.05
2024-05-09T15:55:35.254Z,20.94
2024-05-09T15:58:03.423Z,20.94
2024-05-09T16:00:38.346Z,20.89
2024-05-09T16:03:09.134Z,20.76
2024-05-09T16:05:36.613Z,20.59
2024-05-09T16:08:03.687Z,20.58
2024-05-09T16:10:33.106Z,20.44
2024-05-09T16:13:01.565Z,20.34
2024-05-09T16:15:28.525Z,20.30
2024-05-09T16:17:55.287Z,20.12
2024-05-09T16:20:33.704Z,20.24
2024-05-09T16:23:05.695Z,20.08
2024-05-09T16:25:32.402Z,19.85
2024-05-09T16:27:59.095Z,20.13
2024-05-09T16:30:32.117Z,19.90
2024-05-09T16:33:02.680Z,19.76
2024-05-09T16:35:29.554Z,19.92
2024-05-09T16:37:56.136Z,19.90
2024-05-09T16:40:30.278Z,19.98
2024-05-09T16:43:04.282Z,20.05
2024-05-09T16:45:31.346Z,19.91
2024-05-09T16:47:59.361Z,19.81
2024-05-09T16:50:31.120Z,19.60
2024-05-09T16:52:59.989Z,19.72
2024-05-09T16:55:26.789Z,19.71
2024-05-09T16:57:53.492Z,19.69
2024-05-09T17:00:31.048Z,19.39
2024-05-09T17:03:06.194Z,19.51
2024-05-09T17:05:33.555Z,19.51
2024-05-09T17:08:01.119Z,19.50
2024-05-09T17:10:32.653Z,19.50
2024-05-09T17:13:01.432Z,19.46
2024-05-09T17:15:28.115Z,19.34
2024-05-09T17:17:55.120Z,19.34
2024-05-09T17:20:29.525Z,19.16
2024-05-09T17:23:01.570Z,18.93
2024-05-09T17:25:28.368Z,19.18
2024-05-09T17:27:55.368Z,19.01
2024-05-09T17:30:29.066Z,19.17
2024-05-09T17:33:02.153Z,19.12
2024-05-09T17:35:28.907Z,19.22
2024-05-09T17:37:55.498Z,19.19
2024-05-09T17:40:30.774Z,19.21
2024-05-09T17:43:01.159Z,19.21
2024-05-09T17:45:27.833Z,19.04
2024-05-09T17:47:54.673Z,19.12
2024-05-09T17:50:27.629Z,18.89
2024-05-09T17:53:00.726Z,19.03
2024-05-09T17:55:27.580Z,18.96
2024-05-09T17:57:54.503Z,18.89
2024-05-09T18:00:29.286Z,18.83
2024-05-09T18:03:04.323Z,18.79
2024-05-09T18:05:31.402Z,18.73
2024-05-09T18:07:58.175Z,18.67
2024-05-09T18:10:32.571Z,18.70
2024-05-09T18:13:03.270Z,18.59
2024-05-09T18:15:29.907Z,18.44
2024-05-09T18:17:56.660Z,18.42
2024-05-09T18:20:32.246Z,18.21
2024-05-09T18:23:06.643Z,18.29
2024-05-09T18:25:33.193Z,18.31
2024-05-09T18:28:02.229Z,18.19
2024-05-09T18:30:34.399Z,18.04
2024-05-09T18:33:03.187Z,17.90
2024-05-09T18:35:29.876Z,17.97
2024-05-09T18:37:56.420Z,17.95
2024-05-09T18:40:31.279Z,17.92
2024-05-09T18:43:02.026Z,17.94
2024-05-09T18:45:29.106Z,17.91
2024-05-09T18:47:56.065Z,17.94
2024-05-09T18:50:31.874Z,17.87
2024-05-09T18:53:03.400Z,17.78
2024-05-09T18:55:29.919Z,17.70
2024-05-09T18:57:57.097Z,17.58
2024-05-09T19:00:33.216Z,17.58
2024-05-09T19:03:05.500Z,17.51
2024-05-09T19:05:33.247Z,17.43
2024-05-09T19:08:00.251Z,17.33
2024-05-09T19:10:33.701Z,17.31
2024-05-09T19:13:04.316Z,17.17
2024-05-09T19:15:33.664Z,17.28
2024-05-09T19:18:00.613Z,17.22
2024-05-09T19:20:33.145Z,17.19
2024-05-09T19:23:01.364Z,17.14
2024-05-09T19:25:27.873Z,17.16
2024-05-09T19:27:54.484Z,17.12
2024-05-09T19:30:29.771Z,17.08
2024-05-09T19:33:04.731Z,17.08
2024-05-09T19:35:31.429Z,17.05
2024-05-09T19:37:58.433Z,17.05
2024-05-09T19:40:31.245Z,17.08
2024-05-09T19:43:00.483Z,17.09
2024-05-09T19:45:27.175Z,16.92
2024-05-09T19:47:53.926Z,17.10
2024-05-09T19:50:27.058Z,17.09
2024-05-09T19:53:02.619Z,17.04
2024-05-09T19:55:29.261Z,17.03
2024-05-09T19:57:55.927Z,16.89
2024-05-09T20:00:29.221Z,16.98
2024-05-09T20:03:02.024Z,16.91
2024-05-09T20:05:30.754Z,16.95
2024-05-09T20:07:57.596Z,16.91
2024-05-09T20:10:29.784Z,16.83
2024-05-09T20:12:59.334Z,16.87
2024-05-09T20:15:26.015Z,16.26
2024-05-09T20:17:52.671Z,16.87
2024-05-09T20:20:28.356Z,16.78
2024-05-09T20:23:03.218Z,16.77
2024-05-09T20:25:30.007Z,16.66
2024-05-09T20:27:56.620Z,16.75
2024-05-09T20:30:30.547Z,16.74
2024-05-09T20:32:59.848Z,16.64
2024-05-09T20:35:27.017Z,16.84
2024-05-09T20:37:53.739Z,16.85
2024-05-09T20:40:28.353Z,16.89
2024-05-09T20:42:59.201Z,16.85
2024-05-09T20:45:26.324Z,16.82
2024-05-09T20:47:53.218Z,16.82
2024-05-09T20:50:28.424Z,16.66
2024-05-09T20:53:02.770Z,16.82
2024-05-09T20:55:30.042Z,16.81
2024-05-09T20:57:57.261Z,16.64
2024-05-09T21:00:33.694Z,16.84
2024-05-09T21:03:06.334Z,16.77
2024-05-09T21:05:33.687Z,16.62
2024-05-09T21:08:01.365Z,16.75
2024-05-09T21:10:32.670Z,16.61
2024-05-09T21:13:01.524Z,16.79
2024-05-09T21:15:28.582Z,16.83
2024-05-09T21:17:55.334Z,16.76
2024-05-09T21:20:28.686Z,16.64
2024-05-09T21:22:58.411Z,16.79
2024-05-09T21:25:25.117Z,16.73
2024-05-09T21:27:51.836Z,16.74
2024-05-09T21:30:23.151Z,16.67
2024-05-09T21:32:58.754Z,16.57
2024-05-09T21:35:25.283Z,16.57
2024-05-09T21:37:51.837Z,16.25
2024-05-09T21:40:27.003Z,16.31
2024-05-09T21:43:00.107Z,16.25
2024-05-09T21:45:26.718Z,16.22
2024-05-09T21:47:53.525Z,16.30
2024-05-09T21:50:27.520Z,16.00
2024-05-09T21:52:58.859Z,16.28
2024-05-09T21:55:25.469Z,16.32
2024-05-09T21:57:52.100Z,16.27
2024-05-09T22:00:28.622Z,16.25
2024-05-09T22:03:01.930Z,16.21
2024-05-09T22:05:28.692Z,16.19
2024-05-09T22:07:55.330Z,16.04
2024-05-09T22:10:26.533Z,16.08
2024-05-09T22:12:59.182Z,16.28
2024-05-09T22:15:25.863Z,16.03
2024-05-09T22:17:52.542Z,16.13
2024-05-09T22:20:26.009Z,16.18
2024-05-09T22:23:00.644Z,15.86
2024-05-09T22:25:29.692Z,16.15
2024-05-09T22:27:57.048Z,16.00
2024-05-09T22:30:31.181Z,16.14
2024-05-09T22:33:01.949Z,16.08
2024-05-09T22:35:28.496Z,16.12
2024-05-09T22:37:55.329Z,16.08
2024-05-09T22:40:29.524Z,16.01
2024-05-09T22:43:05.973Z,16.07
2024-05-09T22:45:32.786Z,16.03
2024-05-09T22:47:59.683Z,16.04
2024-05-09T22:50:30.542Z,16.01
2024-05-09T22:52:59.097Z,16.02
2024-05-09T22:55:25.589Z,16.00
2024-05-09T22:57:52.240Z,15.87
2024-05-09T23:00:21.846Z,15.95
2024-05-09T23:02:52.814Z,15.78
2024-05-09T23:05:19.628Z,15.93
2024-05-09T23:07:46.261Z,15.94
2024-05-09T23:10:17.377Z,15.92
2024-05-09T23:12:51.503Z,15.88
2024-05-09T23:15:18.159Z,15.84
2024-05-09T23:17:44.922Z,15.89
2024-05-09T23:20:14.449Z,15.91
2024-05-09T23:22:41.086Z,15.90
2024-05-09T23:25:07.765Z,15.89
2024-05-09T23:27:34.603Z,15.83
2024-05-09T23:30:01.239Z,15.82
2024-05-09T23:32:27.856Z,15.75
2024-05-09T23:34:54.521Z,15.75
2024-05-09T23:37:21.162Z,15.74
2024-05-09T23:39:47.793Z,15.73
2024-05-09T23:42:14.408Z,15.70
2024-05-09T23:44:40.945Z,15.76
2024-05-09T23:47:10.656Z,15.66
2024-05-09T23:49:37.546Z,15.45
2024-05-09T23:52:05.436Z,15.68
2024-05-09T23:54:32.095Z,15.69
2024-05-09T23:56:58.628Z,15.72
2024-05-09T23:59:25.138Z,15.72
